createdAt,value
2023-03-17T00:00:01.418Z,-0.49
2023-03-17T00:01:01.881Z,-0.43
2023-03-17T00:02:01.414Z,-0.38
2023-03-17T00:03:01.874Z,-0.31
2023-03-17T00:04:03.061Z,-0.25
2023-03-17T00:05:01.794Z,-0.2
2023-03-17T00:06:02.274Z,-0.17
2023-03-17T00:07:01.723Z,-0.14
2023-03-17T00:08:02.307Z,-0.15
2023-03-17T00:09:01.712Z,-0.14
2023-03-17T00:10:03.871Z,-0.17
2023-03-17T00:11:03.308Z,-0.2
2023-03-17T00:12:03.784Z,-0.21
2023-03-17T00:13:01.658Z,-0.23
2023-03-17T00:14:03.786Z,-0.22
2023-03-17T00:15:03.324Z,-0.22
2023-03-17T00:16:02.234Z,-0.2
2023-03-17T00:17:01.549Z,-0.22
2023-03-17T00:18:02.046Z,-0.21
2023-03-17T00:19:01.475Z,-0.21
2023-03-17T00:20:02.028Z,-0.23
2023-03-17T00:21:01.492Z,-0.23
2023-03-17T00:22:01.952Z,-0.23
2023-03-17T00:23:01.519Z,-0.24
2023-03-17T00:24:01.979Z,-0.26
2023-03-17T00:25:01.401Z,-0.26
2023-03-17T00:26:01.877Z,-0.3
2023-03-17T00:27:01.401Z,-0.32
2023-03-17T00:28:02.838Z,-0.36
2023-03-17T00:29:03.250Z,-0.39
2023-03-17T00:30:03.711Z,-0.43
2023-03-17T00:31:01.487Z,-0.45
2023-03-17T00:32:02.039Z,-0.46
2023-03-17T00:33:01.556Z,-0.5
2023-03-17T00:34:02.021Z,-0.52
2023-03-17T00:35:01.488Z,-0.54
2023-03-17T00:36:02.031Z,-0.57
2023-03-17T00:37:01.390Z,-0.58
2023-03-17T00:38:03.544Z,-0.59
2023-03-17T00:39:01.320Z,-0.55
2023-03-17T00:40:02.150Z,-0.52
2023-03-17T00:42:01.907Z,-0.51
2023-03-17T00:43:02.294Z,-0.54
2023-03-17T00:44:01.707Z,-0.56
2023-03-17T00:45:02.183Z,-0.58
2023-03-17T00:46:01.731Z,-0.61
2023-03-17T00:47:02.316Z,-0.65
2023-03-17T00:48:01.655Z,-0.67
2023-03-17T00:49:02.119Z,-0.67
2023-03-17T00:50:03.357Z,-0.69
2023-03-17T00:51:02.116Z,-0.71
2023-03-17T00:52:01.569Z,-0.74
2023-03-17T00:53:02.072Z,-0.75
2023-03-17T00:54:03.222Z,-0.73
2023-03-17T00:55:02.029Z,-0.71
2023-03-17T00:56:01.570Z,-0.7
2023-03-17T00:57:02.065Z,-0.66
2023-03-17T00:58:01.502Z,-0.66
2023-03-17T00:59:01.996Z,-0.65
2023-03-17T01:00:01.479Z,-0.64
2023-03-17T01:01:02.071Z,-0.6
2023-03-17T01:02:01.432Z,-0.57
2023-03-17T01:03:01.867Z,-0.51
2023-03-17T01:04:01.419Z,-0.47
2023-03-17T01:05:06.762Z,-0.46
2023-03-17T01:06:01.306Z,-0.46
2023-03-17T01:07:03.512Z,-0.47
2023-03-17T01:08:02.266Z,-0.49
2023-03-17T01:09:01.724Z,-0.51
2023-03-17T01:10:02.301Z,-0.53
2023-03-17T01:11:01.714Z,-0.54
2023-03-17T01:12:02.208Z,-0.57
2023-03-17T01:13:03.343Z,-0.56
2023-03-17T01:14:02.212Z,-0.53
2023-03-17T01:15:01.638Z,-0.54
2023-03-17T01:16:02.131Z,-0.52
2023-03-17T01:17:01.628Z,-0.5
2023-03-17T01:18:02.120Z,-0.49
2023-03-17T01:19:01.613Z,-0.49
2023-03-17T01:20:02.122Z,-0.47
2023-03-17T01:21:01.564Z,-0.47
2023-03-17T01:22:02.044Z,-0.49
2023-03-17T01:23:01.468Z,-0.51
2023-03-17T01:24:03.669Z,-0.49
2023-03-17T01:25:01.480Z,-0.49
2023-03-17T01:26:01.956Z,-0.5
2023-03-17T01:27:01.480Z,-0.52
2023-03-17T01:28:01.957Z,-0.52
2023-03-17T01:29:03.172Z,-0.52
2023-03-17T01:30:01.958Z,-0.51
2023-03-17T01:31:01.413Z,-0.5
2023-03-17T01:32:01.874Z,-0.5
2023-03-17T01:33:01.412Z,-0.49
2023-03-17T01:34:01.880Z,-0.5
2023-03-17T01:35:03.012Z,-0.47
2023-03-17T01:36:01.855Z,-0.46
2023-03-17T01:37:02.292Z,-0.46
2023-03-17T01:38:03.473Z,-0.44
2023-03-17T01:39:02.282Z,-0.43
2023-03-17T01:40:03.400Z,-0.42
2023-03-17T01:41:03.949Z,-0.42
2023-03-17T01:42:01.739Z,-0.41
2023-03-17T01:43:02.204Z,-0.41
2023-03-17T01:44:01.643Z,-0.4
2023-03-17T01:45:02.120Z,-0.38
2023-03-17T01:46:01.692Z,-0.38
2023-03-17T01:47:02.152Z,-0.39
2023-03-17T01:48:01.559Z,-0.41
2023-03-17T01:49:02.054Z,-0.43
2023-03-17T01:50:01.559Z,-0.43
2023-03-17T01:51:02.044Z,-0.44
2023-03-17T01:52:03.169Z,-0.45
2023-03-17T01:53:01.968Z,-0.46
2023-03-17T01:54:01.397Z,-0.46
2023-03-17T01:55:01.891Z,-0.46
2023-03-17T01:56:01.405Z,-0.47
2023-03-17T01:57:03.575Z,-0.46
2023-03-17T01:58:01.342Z,-0.46
2023-03-17T01:59:01.820Z,-0.46
2023-03-17T02:00:02.290Z,-0.46
2023-03-17T02:01:01.854Z,-0.47
2023-03-17T02:02:02.297Z,-0.49
2023-03-17T02:03:01.747Z,-0.51
2023-03-17T02:04:03.922Z,-0.53
2023-03-17T02:05:01.717Z,-0.53
2023-03-17T02:06:02.224Z,-0.51
2023-03-17T02:07:01.648Z,-0.51
2023-03-17T02:08:02.134Z,-0.52
2023-03-17T02:09:01.694Z,-0.5
2023-03-17T02:10:02.122Z,-0.5
2023-03-17T02:11:03.245Z,-0.5
2023-03-17T02:12:02.045Z,-0.49
2023-03-17T02:13:01.589Z,-0.47
2023-03-17T02:14:02.073Z,-0.47
2023-03-17T02:15:01.473Z,-0.49
2023-03-17T02:16:01.966Z,-0.5
2023-03-17T02:17:03.184Z,-0.51
2023-03-17T02:18:01.978Z,-0.53
2023-03-17T02:19:01.428Z,-0.53
2023-03-17T02:20:03.553Z,-0.55
2023-03-17T02:21:01.401Z,-0.55
2023-03-17T02:22:01.911Z,-0.54
2023-03-17T02:23:01.375Z,-0.55
2023-03-17T02:24:01.875Z,-0.54
2023-03-17T02:25:01.322Z,-0.54
2023-03-17T02:26:03.473Z,-0.54
2023-03-17T02:27:01.325Z,-0.54
2023-03-17T02:28:03.537Z,-0.55
2023-03-17T02:29:02.291Z,-0.55
2023-03-17T02:30:03.402Z,-0.52
2023-03-17T02:31:03.954Z,-0.52
2023-03-17T02:32:01.723Z,-0.52
2023-03-17T02:33:02.234Z,-0.53
2023-03-17T02:34:01.729Z,-0.55
2023-03-17T02:35:02.157Z,-0.56
2023-03-17T02:36:03.401Z,-0.56
2023-03-17T02:37:02.128Z,-0.56
2023-03-17T02:38:03.325Z,-0.56
2023-03-17T02:39:02.073Z,-0.55
2023-03-17T02:40:03.265Z,-0.55
2023-03-17T02:41:02.046Z,-0.56
2023-03-17T02:42:01.494Z,-0.57
2023-03-17T02:43:01.959Z,-0.57
2023-03-17T02:44:01.535Z,-0.56
2023-03-17T02:45:01.977Z,-0.58
2023-03-17T02:46:01.491Z,-0.58
2023-03-17T02:47:03.562Z,-0.57
2023-03-17T02:48:01.417Z,-0.56
2023-03-17T02:49:03.545Z,-0.53
2023-03-17T02:50:03.033Z,-0.51
2023-03-17T02:51:01.803Z,-0.5
2023-03-17T02:52:02.287Z,-0.47
2023-03-17T02:53:01.724Z,-0.45
2023-03-17T02:54:02.293Z,-0.4
2023-03-17T02:55:03.418Z,-0.37
2023-03-17T02:56:02.203Z,-0.35
2023-03-17T02:57:01.637Z,-0.34
2023-03-17T02:58:02.122Z,-0.3
2023-03-17T02:59:03.311Z,-0.27
2023-03-17T03:00:02.149Z,-0.26
2023-03-17T03:01:01.740Z,-0.24
2023-03-17T03:02:02.130Z,-0.23
2023-03-17T03:03:01.586Z,-0.22
2023-03-17T03:04:02.047Z,-0.2
2023-03-17T03:05:01.590Z,-0.15
2023-03-17T03:06:03.162Z,-0.12
2023-03-17T03:07:01.477Z,-0.09
2023-03-17T03:08:01.971Z,-0.07
2023-03-17T03:09:01.486Z,-0.06
2023-03-17T03:10:02.023Z,-0.05
2023-03-17T03:11:01.405Z,-0.05
2023-03-17T03:12:01.881Z,-0.03
2023-03-17T03:13:01.388Z,-0.02
2023-03-17T03:14:01.879Z,0
2023-03-17T03:15:01.343Z,0.03
2023-03-17T03:16:01.876Z,0.03
2023-03-17T03:17:02.274Z,0.02
2023-03-17T03:18:01.791Z,0.01
2023-03-17T03:19:02.287Z,-0.01
2023-03-17T03:20:01.754Z,-0.05
2023-03-17T03:21:02.279Z,-0.06
2023-03-17T03:22:01.719Z,-0.05
2023-03-17T03:23:02.208Z,-0.06
2023-03-17T03:24:01.720Z,-0.06
2023-03-17T03:25:02.225Z,-0.06
2023-03-17T03:26:01.664Z,-0.06
2023-03-17T03:27:02.125Z,-0.05
2023-03-17T03:28:04.287Z,-0.07
2023-03-17T03:29:02.043Z,-0.06
2023-03-17T03:30:01.493Z,0.02
2023-03-17T03:31:01.986Z,0.06
2023-03-17T03:32:01.478Z,0.08
2023-03-17T03:33:02.040Z,0.12
2023-03-17T03:34:01.405Z,0.18
2023-03-17T03:35:03.589Z,0.21
2023-03-17T03:36:01.352Z,0.21
2023-03-17T03:37:01.911Z,0.19
2023-03-17T03:38:02.277Z,0.2
2023-03-17T03:39:03.481Z,0.19
2023-03-17T03:40:02.303Z,0.18
2023-03-17T03:41:01.740Z,0.15
2023-03-17T03:42:02.196Z,0.13
2023-03-17T03:43:16.134Z,0.14
2023-03-17T03:44:02.192Z,0.15
2023-03-17T03:45:01.720Z,0.18
2023-03-17T03:46:02.167Z,0.18
2023-03-17T03:47:01.649Z,0.17
2023-03-17T03:48:02.111Z,0.16
2023-03-17T03:49:03.265Z,0.16
2023-03-17T03:50:03.808Z,0.19
2023-03-17T03:51:01.562Z,0.18
2023-03-17T03:52:03.732Z,0.18
2023-03-17T03:53:01.510Z,0.17
2023-03-17T03:54:01.956Z,0.15
2023-03-17T03:55:01.524Z,0.13
2023-03-17T03:56:01.960Z,0.14
2023-03-17T03:57:01.398Z,0.15
2023-03-17T03:58:01.870Z,0.14
2023-03-17T03:59:01.402Z,0.14
2023-03-17T04:00:03.570Z,0.13
2023-03-17T04:01:02.990Z,0.1
2023-03-17T04:02:01.793Z,0.08
2023-03-17T04:03:02.300Z,0.06
2023-03-17T04:04:03.488Z,0.03
2023-03-17T04:05:02.313Z,0.04
2023-03-17T04:06:01.725Z,0.04
2023-03-17T04:07:03.873Z,0.03
2023-03-17T04:08:01.623Z,0.01
2023-03-17T04:09:02.114Z,-0.02
2023-03-17T04:10:01.638Z,-0.02
2023-03-17T04:11:02.137Z,-0.05
2023-03-17T04:12:01.555Z,-0.06
2023-03-17T04:13:03.711Z,-0.07
2023-03-17T04:14:01.554Z,-0.05
2023-03-17T04:15:02.037Z,-0.03
2023-03-17T04:16:01.727Z,-0.05
2023-03-17T04:17:03.630Z,-0.06
2023-03-17T04:18:03.167Z,-0.07
2023-03-17T04:19:02.019Z,-0.07
2023-03-17T04:20:01.436Z,-0.09
2023-03-17T04:21:01.882Z,-0.1
2023-03-17T04:22:02.997Z,-0.1
2023-03-17T04:23:01.870Z,-0.09
2023-03-17T04:24:01.314Z,-0.09
2023-03-17T04:25:01.791Z,-0.1
2023-03-17T04:26:02.294Z,-0.1
2023-03-17T04:27:05.885Z,-0.11
2023-03-17T04:28:02.274Z,-0.11
2023-03-17T04:29:03.386Z,-0.1
2023-03-17T04:30:03.870Z,-0.06
2023-03-17T04:31:01.724Z,-0.05
2023-03-17T04:32:02.193Z,-0.06
2023-03-17T04:33:01.665Z,-0.03
2023-03-17T04:34:02.113Z,0.02
2023-03-17T04:35:01.671Z,0.04
2023-03-17T04:36:02.196Z,0.07
2023-03-17T04:37:01.586Z,0.12
2023-03-17T04:38:02.034Z,0.13
2023-03-17T04:39:01.551Z,0.14
2023-03-17T04:40:02.038Z,0.15
2023-03-17T04:41:01.509Z,0.19
2023-03-17T04:42:02.044Z,0.21
2023-03-17T04:43:03.660Z,0.2
2023-03-17T04:44:01.957Z,0.21
2023-03-17T04:45:01.474Z,0.2
2023-03-17T04:46:02.044Z,0.21
2023-03-17T04:47:03.095Z,0.19
2023-03-17T04:48:01.873Z,0.17
2023-03-17T04:49:03.008Z,0.14
2023-03-17T04:50:01.821Z,0.15
2023-03-17T04:52:03.476Z,0.17
2023-03-17T04:53:03.960Z,0.15
2023-03-17T04:54:01.807Z,0.13
2023-03-17T04:55:03.976Z,0.14
2023-03-17T04:56:01.735Z,0.13
2023-03-17T04:57:02.206Z,0.14
2023-03-17T04:58:01.627Z,0.14
2023-03-17T04:59:03.789Z,0.17
2023-03-17T05:00:01.628Z,0.16
2023-03-17T05:01:02.141Z,0.14
2023-03-17T05:02:01.661Z,0.1
2023-03-17T05:03:02.112Z,0.07
2023-03-17T05:04:01.546Z,0.04
2023-03-17T05:05:02.223Z,0.02
2023-03-17T05:06:01.577Z,-0.01
2023-03-17T05:07:02.032Z,-0.05
2023-03-17T05:08:01.560Z,-0.08
2023-03-17T05:09:02.035Z,-0.13
2023-03-17T05:10:01.503Z,-0.19
2023-03-17T05:11:02.067Z,-0.21
2023-03-17T05:12:03.158Z,-0.24
2023-03-17T05:13:01.967Z,-0.26
2023-03-17T05:14:01.468Z,-0.27
2023-03-17T05:15:01.948Z,-0.24
2023-03-17T05:16:01.430Z,-0.27
2023-03-17T05:17:01.867Z,-0.26
2023-03-17T05:18:03.307Z,-0.23
2023-03-17T05:19:01.915Z,-0.2
2023-03-17T05:20:03.007Z,-0.16
2023-03-17T05:21:01.885Z,-0.2
2023-03-17T05:22:01.320Z,-0.22
2023-03-17T05:23:01.798Z,-0.3
2023-03-17T05:24:02.315Z,-0.32
2023-03-17T05:25:01.796Z,-0.34
2023-03-17T05:26:02.296Z,-0.36
2023-03-17T05:27:01.800Z,-0.38
2023-03-17T05:28:02.269Z,-0.41
2023-03-17T05:29:03.389Z,-0.42
2023-03-17T05:30:02.211Z,-0.41
2023-03-17T05:31:01.777Z,-0.42
2023-03-17T05:32:02.220Z,-0.45
2023-03-17T05:33:01.685Z,-0.47
2023-03-17T05:34:02.110Z,-0.51
2023-03-17T05:35:01.650Z,-0.53
2023-03-17T05:36:03.767Z,-0.55
2023-03-17T05:37:01.652Z,-0.58
2023-03-17T05:38:02.038Z,-0.59
2023-03-17T05:39:03.168Z,-0.62
2023-03-17T05:40:01.956Z,-0.64
2023-03-17T05:41:01.406Z,-0.64
2023-03-17T05:42:01.911Z,-0.64
2023-03-17T05:43:03.037Z,-0.61
2023-03-17T05:44:01.897Z,-0.6
2023-03-17T05:45:03.003Z,-0.56
2023-03-17T05:46:01.838Z,-0.51
2023-03-17T05:47:03.960Z,-0.45
2023-03-17T05:48:01.724Z,-0.32
2023-03-17T05:49:02.235Z,-0.23
2023-03-17T05:50:03.322Z,-0.19
2023-03-17T05:51:02.241Z,-0.13
2023-03-17T05:52:01.658Z,-0.07
2023-03-17T05:53:02.119Z,0.02
2023-03-17T05:54:03.265Z,0.13
2023-03-17T05:55:02.041Z,0.18
2023-03-17T05:56:01.565Z,0.23
2023-03-17T05:57:02.048Z,0.31
2023-03-17T05:58:03.150Z,0.44
2023-03-17T05:59:03.659Z,0.5
2023-03-17T06:00:01.406Z,0.54
2023-03-17T06:01:01.879Z,0.53
2023-03-17T06:02:01.439Z,0.53
2023-03-17T06:03:01.877Z,0.5
2023-03-17T06:04:01.326Z,0.51
2023-03-17T06:05:01.837Z,0.53
2023-03-17T06:07:01.809Z,0.48
2023-03-17T06:08:02.317Z,0.47
2023-03-17T06:09:01.722Z,0.47
2023-03-17T06:10:02.251Z,0.47
2023-03-17T06:11:01.727Z,0.46
2023-03-17T06:12:02.217Z,0.48
2023-03-17T06:13:03.750Z,0.49
2023-03-17T06:14:02.119Z,0.47
2023-03-17T06:15:01.642Z,0.45
2023-03-17T06:16:02.158Z,0.49
2023-03-17T06:17:01.648Z,0.5
2023-03-17T06:18:02.120Z,0.51
2023-03-17T06:19:01.561Z,0.53
2023-03-17T06:20:02.041Z,0.55
2023-03-17T06:21:01.574Z,0.59
2023-03-17T06:22:02.056Z,0.61
2023-03-17T06:23:04.900Z,0.65
2023-03-17T06:24:01.962Z,0.72
2023-03-17T06:25:01.502Z,0.73
2023-03-17T06:26:01.956Z,0.81
2023-03-17T06:27:01.443Z,0.87
2023-03-17T06:28:01.881Z,0.91
2023-03-17T06:29:01.320Z,0.94
2023-03-17T06:30:01.810Z,0.95
2023-03-17T06:31:03.663Z,0.98
2023-03-17T06:32:18.836Z,1.03
2023-03-17T06:33:02.391Z,1.02
2023-03-17T06:34:01.722Z,1.03
2023-03-17T06:35:02.217Z,1.06
2023-03-17T06:36:01.824Z,1.13
2023-03-17T06:37:02.241Z,1.21
2023-03-17T06:38:01.640Z,1.28
2023-03-17T06:39:02.120Z,1.34
2023-03-17T06:40:01.646Z,1.37
2023-03-17T06:41:02.149Z,1.4
2023-03-17T06:42:01.552Z,1.47
2023-03-17T06:43:02.045Z,1.53
2023-03-17T06:44:03.262Z,1.54
2023-03-17T06:45:02.056Z,1.55
2023-03-17T06:46:03.196Z,1.67
2023-03-17T06:47:01.957Z,1.76
2023-03-17T06:48:01.488Z,1.77
2023-03-17T06:49:01.970Z,1.82
2023-03-17T06:50:01.431Z,1.88
2023-03-17T06:51:01.875Z,2
2023-03-17T06:52:01.428Z,2.07
2023-03-17T06:53:01.897Z,2.2
2023-03-17T06:54:01.392Z,2.26
2023-03-17T06:55:01.876Z,2.37
2023-03-17T06:56:03.007Z,2.43
2023-03-17T06:57:01.829Z,2.55
2023-03-17T06:58:02.271Z,2.65
2023-03-17T06:59:03.481Z,2.74
2023-03-17T07:00:03.975Z,2.84
2023-03-17T07:01:01.717Z,2.97
2023-03-17T07:02:02.295Z,3.14
2023-03-17T07:03:01.638Z,3.35
2023-03-17T07:04:02.117Z,3.47
2023-03-17T07:05:01.776Z,3.64
2023-03-17T07:06:02.120Z,3.78
2023-03-17T07:07:01.573Z,3.89
2023-03-17T07:08:02.116Z,3.95
2023-03-17T07:09:02.340Z,4.01
2023-03-17T07:10:02.040Z,4.08
2023-03-17T07:11:03.241Z,4.22
2023-03-17T07:12:02.077Z,4.24
2023-03-17T07:13:01.486Z,4.34
2023-03-17T07:14:01.971Z,4.43
2023-03-17T07:15:03.067Z,4.58
2023-03-17T07:16:03.675Z,4.69
2023-03-17T07:17:01.421Z,4.8
2023-03-17T07:18:03.587Z,4.86
2023-03-17T07:19:03.081Z,4.92
2023-03-17T07:20:01.871Z,4.97
2023-03-17T07:21:03.003Z,4.96
2023-03-17T07:22:01.793Z,4.98
2023-03-17T07:23:03.982Z,5.04
2023-03-17T07:24:01.796Z,5.07
2023-03-17T07:25:03.278Z,5.18
2023-03-17T07:26:01.956Z,5.24
2023-03-17T07:27:01.508Z,5.28
2023-03-17T07:28:01.976Z,5.34
2023-03-17T07:29:01.440Z,5.36
2023-03-17T07:30:03.538Z,5.37
2023-03-17T07:31:01.384Z,5.43
2023-03-17T07:32:01.791Z,5.49
2023-03-17T07:34:01.823Z,5.51
2023-03-17T07:35:02.352Z,5.53
2023-03-17T07:36:03.564Z,5.54
2023-03-17T07:37:02.194Z,5.55
2023-03-17T07:38:01.708Z,5.55
2023-03-17T07:39:03.877Z,5.55
2023-03-17T07:40:01.733Z,5.57
2023-03-17T07:41:02.216Z,5.55
2023-03-17T07:42:01.668Z,5.55
2023-03-17T07:43:03.790Z,5.51
2023-03-17T07:44:01.551Z,5.52
2023-03-17T07:45:02.041Z,5.56
2023-03-17T07:46:01.614Z,5.6
2023-03-17T07:47:02.106Z,5.68
2023-03-17T07:48:01.502Z,5.76
2023-03-17T07:49:01.970Z,5.83
2023-03-17T07:50:01.473Z,5.92
2023-03-17T07:51:03.674Z,5.99
2023-03-17T07:52:03.081Z,6.07
2023-03-17T07:53:03.572Z,6.12
2023-03-17T07:54:01.309Z,6.2
2023-03-17T07:55:01.882Z,6.27
2023-03-17T07:56:02.989Z,6.35
2023-03-17T07:57:01.809Z,6.41
2023-03-17T07:58:02.342Z,6.5
2023-03-17T07:59:01.754Z,6.52
2023-03-17T08:00:02.194Z,6.57
2023-03-17T08:01:03.427Z,6.67
2023-03-17T08:02:02.254Z,6.73
2023-03-17T08:03:09.741Z,6.75
2023-03-17T08:04:02.204Z,6.84
2023-03-17T08:05:01.661Z,7
2023-03-17T08:06:03.797Z,7.12
2023-03-17T08:07:01.581Z,7.22
2023-03-17T08:08:02.153Z,7.32
2023-03-17T08:09:01.556Z,7.44
2023-03-17T08:10:02.033Z,7.53
2023-03-17T08:11:01.474Z,7.62
2023-03-17T08:12:01.976Z,7.72
2023-03-17T08:13:01.512Z,7.85
2023-03-17T08:14:01.952Z,7.97
2023-03-17T08:15:01.395Z,8.07
2023-03-17T08:16:01.892Z,8.16
2023-03-17T08:17:01.424Z,8.23
2023-03-17T08:18:01.938Z,8.29
2023-03-17T08:19:03.015Z,8.36
2023-03-17T08:20:01.806Z,8.48
2023-03-17T08:21:02.298Z,8.61
2023-03-17T08:22:01.888Z,8.72
2023-03-17T08:23:02.304Z,8.88
2023-03-17T08:24:04.332Z,9.02
2023-03-17T08:25:02.052Z,9.2
2023-03-17T08:26:01.557Z,9.36
2023-03-17T08:27:03.727Z,9.48
2023-03-17T08:28:01.544Z,9.6
2023-03-17T08:29:03.643Z,9.7
2023-03-17T08:30:01.514Z,9.8
2023-03-17T08:31:03.670Z,9.9
2023-03-17T08:32:01.414Z,9.95
2023-03-17T08:33:03.626Z,9.98
2023-03-17T08:34:01.388Z,10.08
2023-03-17T08:35:03.472Z,10.19
2023-03-17T08:36:01.328Z,10.25
2023-03-17T08:37:01.797Z,10.35
2023-03-17T08:38:03.999Z,10.44
2023-03-17T08:39:01.794Z,10.5
2023-03-17T08:40:02.275Z,10.57
2023-03-17T08:41:01.720Z,10.62
2023-03-17T08:42:03.867Z,10.69
2023-03-17T08:43:01.734Z,10.71
2023-03-17T08:44:03.901Z,10.78
2023-03-17T08:45:01.647Z,10.82
2023-03-17T08:46:03.845Z,10.86
2023-03-17T08:47:03.226Z,10.89
2023-03-17T08:48:02.041Z,10.89
2023-03-17T08:49:01.556Z,10.89
2023-03-17T08:50:02.072Z,10.93
2023-03-17T08:51:01.473Z,10.95
2023-03-17T08:52:01.974Z,10.99
2023-03-17T08:53:01.473Z,11.04
2023-03-17T08:54:01.974Z,11.13
2023-03-17T08:55:01.413Z,11.18
2023-03-17T08:56:01.877Z,11.23
2023-03-17T08:57:03.073Z,11.22
2023-03-17T08:58:01.880Z,11.22
2023-03-17T08:59:01.315Z,11.19
2023-03-17T09:00:03.503Z,11.18
2023-03-17T09:01:02.317Z,11.22
2023-03-17T09:02:01.809Z,11.29
2023-03-17T09:03:02.368Z,11.32
2023-03-17T09:04:01.799Z,11.38
2023-03-17T09:05:02.277Z,11.43
2023-03-17T09:06:01.728Z,11.44
2023-03-17T09:07:04.435Z,11.46
2023-03-17T09:08:01.790Z,11.49
2023-03-17T09:09:03.895Z,11.56
2023-03-17T09:10:03.395Z,11.62
2023-03-17T09:11:03.800Z,11.7
2023-03-17T09:12:01.631Z,11.76
2023-03-17T09:13:02.119Z,11.83
2023-03-17T09:14:03.272Z,11.89
2023-03-17T09:15:02.049Z,11.99
2023-03-17T09:16:01.609Z,12.08
2023-03-17T09:17:03.498Z,12.16
2023-03-17T09:18:01.487Z,12.26
2023-03-17T09:19:03.670Z,12.38
2023-03-17T09:20:01.490Z,12.49
2023-03-17T09:21:01.976Z,12.6
2023-03-17T09:22:01.402Z,12.69
2023-03-17T09:23:01.877Z,12.76
2023-03-17T09:24:02.571Z,12.82
2023-03-17T09:25:02.191Z,12.88
2023-03-17T09:26:01.665Z,12.94
2023-03-17T09:27:02.272Z,13.02
2023-03-17T09:28:01.638Z,13.05
2023-03-17T09:29:04.701Z,13.12
2023-03-17T09:30:01.557Z,13.16
2023-03-17T09:31:03.759Z,13.22
2023-03-17T09:32:01.613Z,13.26
2023-03-17T09:33:02.139Z,13.31
2023-03-17T09:34:03.144Z,13.33
2023-03-17T09:35:01.964Z,13.33
2023-03-17T09:36:01.523Z,13.37
2023-03-17T09:37:01.949Z,13.45
2023-03-17T09:38:01.399Z,13.52
2023-03-17T09:39:01.890Z,13.6
2023-03-17T09:40:02.987Z,13.64
2023-03-17T09:41:01.878Z,13.68
2023-03-17T09:42:01.313Z,13.7
2023-03-17T09:43:01.793Z,13.69
2023-03-17T09:44:02.289Z,13.64
2023-03-17T09:45:01.833Z,13.64
2023-03-17T09:46:02.282Z,13.65
2023-03-17T09:47:03.397Z,13.67
2023-03-17T09:48:02.191Z,13.67
2023-03-17T09:49:03.313Z,13.65
2023-03-17T09:50:02.132Z,13.66
2023-03-17T09:51:01.648Z,13.65
2023-03-17T09:52:03.796Z,13.71
2023-03-17T09:53:03.956Z,13.77
2023-03-17T09:54:03.808Z,13.78
2023-03-17T09:55:01.577Z,13.82
2023-03-17T09:56:02.068Z,13.88
2023-03-17T09:57:03.180Z,13.9
2023-03-17T09:58:01.973Z,13.86
2023-03-17T09:59:01.493Z,13.92
2023-03-17T10:00:03.789Z,13.98
2023-03-17T10:01:01.494Z,14.07
2023-03-17T10:02:01.910Z,14.11
2023-03-17T10:03:01.406Z,14.15
2023-03-17T10:04:03.556Z,14.25
2023-03-17T10:05:03.138Z,14.3
2023-03-17T10:06:01.798Z,14.42
2023-03-17T10:08:03.475Z,14.49
2023-03-17T10:09:02.273Z,14.52
2023-03-17T10:10:01.800Z,14.56
2023-03-17T10:11:02.291Z,14.62
2023-03-17T10:12:01.721Z,14.68
2023-03-17T10:13:02.190Z,14.68
2023-03-17T10:14:01.715Z,14.68
2023-03-17T10:15:02.197Z,14.71
2023-03-17T10:16:01.736Z,14.75
2023-03-17T10:17:02.114Z,14.83
2023-03-17T10:18:01.660Z,14.88
2023-03-17T10:19:03.797Z,14.92
2023-03-17T10:20:01.720Z,14.94
2023-03-17T10:21:03.742Z,14.99
2023-03-17T10:22:01.572Z,15.04
2023-03-17T10:23:02.037Z,15.06
2023-03-17T10:24:01.566Z,15.07
2023-03-17T10:25:03.717Z,15.06
2023-03-17T10:26:01.488Z,15.04
2023-03-17T10:27:01.993Z,15.06
2023-03-17T10:28:01.412Z,15.02
2023-03-17T10:29:01.876Z,15.06
2023-03-17T10:30:01.400Z,15.04
2023-03-17T10:31:03.569Z,15.04
2023-03-17T10:32:03.143Z,15.06
2023-03-17T10:33:03.583Z,15.08
2023-03-17T10:34:02.273Z,15.07
2023-03-17T10:35:01.808Z,15.04
2023-03-17T10:36:02.313Z,15.01
2023-03-17T10:37:03.431Z,14.97
2023-03-17T10:38:14.133Z,14.97
2023-03-17T10:39:01.642Z,15
2023-03-17T10:40:02.108Z,15.03
2023-03-17T10:41:01.635Z,15.09
2023-03-17T10:42:02.120Z,15.09
2023-03-17T10:43:01.569Z,15.09
2023-03-17T10:44:02.047Z,15.11
2023-03-17T10:45:01.587Z,15.12
2023-03-17T10:46:02.044Z,15.16
2023-03-17T10:47:01.681Z,15.23
2023-03-17T10:48:02.040Z,15.25
2023-03-17T10:49:01.515Z,15.29
2023-03-17T10:50:01.972Z,15.36
2023-03-17T10:51:01.480Z,15.41
2023-03-17T10:52:03.553Z,15.49
2023-03-17T10:53:01.420Z,15.59
2023-03-17T10:54:01.888Z,15.67
2023-03-17T10:55:01.429Z,15.72
2023-03-17T10:56:01.892Z,15.77
2023-03-17T10:57:03.022Z,15.82
2023-03-17T10:58:01.794Z,15.91
2023-03-17T10:59:02.297Z,15.95
2023-03-17T11:00:01.820Z,15.97
2023-03-17T11:01:02.395Z,15.97
2023-03-17T11:02:01.761Z,15.99
2023-03-17T11:03:03.889Z,16.06
2023-03-17T11:04:03.355Z,16.08
2023-03-17T11:05:02.200Z,16.08
2023-03-17T11:06:03.327Z,16.13
2023-03-17T11:07:02.145Z,16.16
2023-03-17T11:08:01.653Z,16.16
2023-03-17T11:09:02.130Z,16.22
2023-03-17T11:10:03.242Z,16.27
2023-03-17T11:11:02.039Z,16.28
2023-03-17T11:12:03.241Z,16.26
2023-03-17T11:13:03.711Z,16.31
2023-03-17T11:14:01.504Z,16.35
2023-03-17T11:15:01.980Z,16.4
2023-03-17T11:16:01.531Z,16.44
2023-03-17T11:17:01.948Z,16.48
2023-03-17T11:18:01.429Z,16.5
2023-03-17T11:19:01.878Z,16.51
2023-03-17T11:20:01.406Z,16.51
2023-03-17T11:21:01.885Z,16.46
2023-03-17T11:22:02.338Z,16.45
2023-03-17T11:23:02.215Z,16.48
2023-03-17T11:24:01.563Z,16.51
2023-03-17T11:25:02.041Z,16.56
2023-03-17T11:26:01.482Z,16.58
2023-03-17T11:27:02.051Z,16.63
2023-03-17T11:28:03.175Z,16.65
2023-03-17T11:29:01.959Z,16.69
2023-03-17T11:30:03.083Z,16.75
2023-03-17T11:31:01.902Z,16.81
2023-03-17T11:32:01.528Z,16.86
2023-03-17T11:33:03.557Z,16.84
2023-03-17T11:35:01.817Z,16.76
2023-03-17T11:36:02.347Z,16.74
2023-03-17T11:37:01.793Z,16.77
2023-03-17T11:38:02.280Z,16.8
2023-03-17T11:39:01.749Z,16.82
2023-03-17T11:40:02.212Z,16.85
2023-03-17T11:41:01.749Z,16.87
2023-03-17T11:42:02.146Z,16.9
2023-03-17T11:43:01.648Z,16.92
2023-03-17T11:44:02.134Z,16.98
2023-03-17T11:45:01.643Z,17.05
2023-03-17T11:46:02.157Z,17.14
2023-03-17T11:47:03.240Z,17.15
2023-03-17T11:48:02.048Z,17.17
2023-03-17T11:49:01.508Z,17.16
2023-03-17T11:50:01.979Z,17.16
2023-03-17T11:51:03.171Z,17.18
2023-03-17T11:52:03.630Z,17.17
2023-03-17T11:53:01.416Z,17.15
2023-03-17T11:54:01.886Z,17.09
2023-03-17T11:55:01.427Z,17.02
2023-03-17T11:56:01.876Z,16.99
2023-03-17T11:57:02.993Z,16.98
2023-03-17T11:58:01.791Z,16.99
2023-03-17T11:59:02.285Z,16.94
2023-03-17T12:00:01.808Z,16.9
2023-03-17T12:01:02.280Z,16.87
2023-03-17T12:02:03.390Z,16.86
2023-03-17T12:03:02.237Z,16.86
2023-03-17T12:04:01.912Z,16.91
2023-03-17T12:05:02.231Z,16.99
2023-03-17T12:06:01.638Z,17.07
2023-03-17T12:07:03.795Z,17.17
2023-03-17T12:08:01.561Z,17.22
2023-03-17T12:09:02.040Z,17.28
2023-03-17T12:10:01.584Z,17.33
2023-03-17T12:11:03.709Z,17.36
2023-03-17T12:12:01.477Z,17.35
2023-03-17T12:13:01.960Z,17.3
2023-03-17T12:14:01.522Z,17.23
2023-03-17T12:15:03.667Z,17.21
2023-03-17T12:16:01.436Z,17.19
2023-03-17T12:17:01.953Z,17.17
2023-03-17T12:18:01.392Z,17.16
2023-03-17T12:19:01.902Z,17.14
2023-03-17T12:20:03.080Z,17.13
2023-03-17T12:21:01.854Z,17.15
2023-03-17T12:22:03.220Z,17.18
2023-03-17T12:23:01.952Z,17.18
2023-03-17T12:24:01.469Z,17.24
2023-03-17T12:25:03.542Z,17.31
2023-03-17T12:26:01.403Z,17.36
2023-03-17T12:27:01.896Z,17.4
2023-03-17T12:28:01.391Z,17.45
2023-03-17T12:29:01.875Z,17.48
2023-03-17T12:30:01.327Z,17.51
2023-03-17T12:31:01.838Z,17.5
2023-03-17T12:32:03.977Z,17.45
2023-03-17T12:33:01.869Z,17.39
2023-03-17T12:34:02.266Z,17.36
2023-03-17T12:35:01.709Z,17.37
2023-03-17T12:36:02.221Z,17.41
2023-03-17T12:37:01.748Z,17.45
2023-03-17T12:38:02.193Z,17.46
2023-03-17T12:39:01.721Z,17.49
2023-03-17T12:40:02.100Z,17.53
2023-03-17T12:41:01.643Z,17.55
2023-03-17T12:42:02.133Z,17.63
2023-03-17T12:43:03.244Z,17.72
2023-03-17T12:44:03.707Z,17.8
2023-03-17T12:45:01.556Z,17.92
2023-03-17T12:46:02.103Z,18.05
2023-03-17T12:47:03.182Z,18.13
2023-03-17T12:48:03.642Z,18.2
2023-03-17T12:49:01.500Z,18.25
2023-03-17T12:50:01.958Z,18.3
2023-03-17T12:51:01.394Z,18.39
2023-03-17T12:52:01.869Z,18.47
2023-03-17T12:53:01.430Z,18.53
2023-03-17T12:54:03.563Z,18.59
2023-03-17T12:55:03.013Z,18.65
2023-03-17T12:56:01.795Z,18.67
2023-03-17T12:57:03.977Z,18.71
2023-03-17T12:58:01.795Z,18.79
2023-03-17T12:59:03.952Z,18.88
2023-03-17T13:00:01.712Z,18.95
2023-03-17T13:01:02.213Z,19.02
2023-03-17T13:02:03.436Z,19.07
2023-03-17T13:03:02.219Z,19.12
2023-03-17T13:04:01.667Z,19.09
2023-03-17T13:05:02.191Z,18.98
2023-03-17T13:06:03.347Z,18.89
2023-03-17T13:07:02.100Z,18.86
2023-03-17T13:08:01.579Z,18.87